sensor_id;sensor_type;location;lat;lon;timestamp;pressure;altitude;pressure_sealevel;temperature;humidity
39177;BME280;24904;52.208;21.192;2023-05-14T00:03:02;101212.72;;;10.15;64.09
39177;BME280;24904;52.208;21.192;2023-05-14T00:08:06;101219.85;;;10.12;64.10
39177;BME280;24904;52.208;21.192;2023-05-14T00:13:09;101228.79;;;10.09;64.12
39177;BME280;24904;52.208;21.192;2023-05-14T00:18:12;101223.48;;;10.07;64.13
39177;BME280;24904;52.208;21.192;2023-05-14T00:23:15;101221.71;;;9.94;63.94
39177;BME280;24904;52.208;21.192;2023-05-14T00:28:18;101213.50;;;9.80;64.09
39177;BME280;24904;52.208;21.192;2023-05-14T00:33:22;101209.52;;;9.69;64.30
39177;BME280;24904;52.208;21.192;2023-05-14T00:38:25;101205.76;;;9.52;64.38
39177;BME280;24904;52.208;21.192;2023-05-14T00:43:29;101204.38;;;9.42;64.83
39177;BME280;24904;52.208;21.192;2023-05-14T00:48:34;101206.03;;;9.32;64.94
39177;BME280;24904;52.208;21.192;2023-05-14T00:53:37;101199.52;;;9.25;65.10
39177;BME280;24904;52.208;21.192;2023-05-14T00:58:41;101199.17;;;9.12;65.27
39177;BME280;24904;52.208;21.192;2023-05-14T01:03:44;101201.06;;;9.02;65.43
39177;BME280;24904;52.208;21.192;2023-05-14T01:08:55;101199.30;;;8.96;65.45
39177;BME280;24904;52.208;21.192;2023-05-14T01:14:07;101200.20;;;8.82;65.32
39177;BME280;24904;52.208;21.192;2023-05-14T01:19:21;101204.10;;;8.67;65.76
39177;BME280;24904;52.208;21.192;2023-05-14T01:24:28;101206.94;;;8.60;65.92
39177;BME280;24904;52.208;21.192;2023-05-14T01:29:33;101205.87;;;8.54;66.17
39177;BME280;24904;52.208;21.192;2023-05-14T01:34:39;101198.68;;;8.45;66.35
39177;BME280;24904;52.208;21.192;2023-05-14T01:39:43;101197.39;;;8.41;66.59
39177;BME280;24904;52.208;21.192;2023-05-14T01:44:47;101193.09;;;8.32;66.71
39177;BME280;24904;52.208;21.192;2023-05-14T01:49:50;101187.45;;;8.25;66.97
39177;BME280;24904;52.208;21.192;2023-05-14T01:54:53;101185.58;;;8.23;66.83
39177;BME280;24904;52.208;21.192;2023-05-14T01:59:56;101176.98;;;8.20;67.28
39177;BME280;24904;52.208;21.192;2023-05-14T02:05:00;101172.95;;;8.17;67.10
39177;BME280;24904;52.208;21.192;2023-05-14T02:10:03;101176.73;;;8.09;67.02
39177;BME280;24904;52.208;21.192;2023-05-14T02:15:08;101177.13;;;7.99;67.39
39177;BME280;24904;52.208;21.192;2023-05-14T02:20:13;101174.34;;;7.95;67.67
39177;BME280;24904;52.208;21.192;2023-05-14T02:25:16;101176.80;;;7.92;67.57
39177;BME280;24904;52.208;21.192;2023-05-14T02:30:21;101173.91;;;7.81;67.58
39177;BME280;24904;52.208;21.192;2023-05-14T02:35:24;101165.79;;;7.74;67.75
39177;BME280;24904;52.208;21.192;2023-05-14T02:40:27;101165.27;;;7.69;68.00
39177;BME280;24904;52.208;21.192;2023-05-14T02:45:30;101166.89;;;7.66;67.86
39177;BME280;24904;52.208;21.192;2023-05-14T02:50:33;101165.59;;;7.62;68.14
39177;BME280;24904;52.208;21.192;2023-05-14T02:55:37;101170.95;;;7.55;68.02
39177;BME280;24904;52.208;21.192;2023-05-14T03:00:40;101175.38;;;7.50;68.37
39177;BME280;24904;52.208;21.192;2023-05-14T03:05:43;101176.80;;;7.53;68.65
39177;BME280;24904;52.208;21.192;2023-05-14T03:10:48;101173.08;;;7.54;68.77
39177;BME280;24904;52.208;21.192;2023-05-14T03:15:53;101175.61;;;7.52;68.81
39177;BME280;24904;52.208;21.192;2023-05-14T03:20:57;101174.80;;;7.49;68.76
39177;BME280;24904;52.208;21.192;2023-05-14T03:26:01;101169.83;;;7.54;68.80
39177;BME280;24904;52.208;21.192;2023-05-14T03:31:06;101170.42;;;7.53;68.61
39177;BME280;24904;52.208;21.192;2023-05-14T03:36:12;101165.25;;;7.53;68.66
39177;BME280;24904;52.208;21.192;2023-05-14T03:41:16;101159.71;;;7.57;69.01
39177;BME280;24904;52.208;21.192;2023-05-14T03:46:22;101164.73;;;7.64;69.10
39177;BME280;24904;52.208;21.192;2023-05-14T03:51:26;101161.75;;;7.68;69.03
39177;BME280;24904;52.208;21.192;2023-05-14T03:56:30;101159.34;;;7.75;69.57
39177;BME280;24904;52.208;21.192;2023-05-14T04:01:35;101154.60;;;7.85;69.84
39177;BME280;24904;52.208;21.192;2023-05-14T04:17:52;101145.64;;;8.23;70.23
39177;BME280;24904;52.208;21.192;2023-05-14T04:22:55;101151.80;;;8.36;70.63
39177;BME280;24904;52.208;21.192;2023-05-14T04:27:58;101156.14;;;8.52;70.46
39177;BME280;24904;52.208;21.192;2023-05-14T04:33:02;101158.02;;;8.64;70.70
39177;BME280;24904;52.208;21.192;2023-05-14T04:38:05;101160.52;;;8.76;70.81
39177;BME280;24904;52.208;21.192;2023-05-14T04:43:08;101160.65;;;8.91;70.64
39177;BME280;24904;52.208;21.192;2023-05-14T04:48:12;101148.48;;;9.06;70.75
39177;BME280;24904;52.208;21.192;2023-05-14T04:53:15;101149.46;;;9.20;70.82
39177;BME280;24904;52.208;21.192;2023-05-14T04:58:18;101152.11;;;9.42;70.96
39177;BME280;24904;52.208;21.192;2023-05-14T05:03:21;101154.75;;;9.66;71.22
39177;BME280;24904;52.208;21.192;2023-05-14T05:08:24;101151.84;;;9.92;71.13
39177;BME280;24904;52.208;21.192;2023-05-14T05:13:28;101152.02;;;10.17;70.87
39177;BME280;24904;52.208;21.192;2023-05-14T05:18:31;101149.55;;;10.43;71.01
39177;BME280;24904;52.208;21.192;2023-05-14T05:23:34;101147.20;;;10.67;70.99
39177;BME280;24904;52.208;21.192;2023-05-14T05:29:15;101153.03;;;10.96;70.78
39177;BME280;24904;52.208;21.192;2023-05-14T05:34:18;101149.64;;;11.21;70.14
39177;BME280;24904;52.208;21.192;2023-05-14T05:39:21;101145.81;;;11.49;69.55
39177;BME280;24904;52.208;21.192;2023-05-14T05:44:24;101138.96;;;11.77;69.56
39177;BME280;24904;52.208;21.192;2023-05-14T05:49:28;101134.59;;;12.03;68.37
39177;BME280;24904;52.208;21.192;2023-05-14T05:54:31;101139.70;;;12.37;67.78
39177;BME280;24904;52.208;21.192;2023-05-14T05:59:34;101134.72;;;12.65;67.37
39177;BME280;24904;52.208;21.192;2023-05-14T06:04:37;101140.44;;;12.97;66.36
39177;BME280;24904;52.208;21.192;2023-05-14T06:09:40;101137.23;;;13.27;64.91
39177;BME280;24904;52.208;21.192;2023-05-14T06:14:43;101133.92;;;13.60;64.00
39177;BME280;24904;52.208;21.192;2023-05-14T06:19:46;101136.80;;;13.94;63.01
39177;BME280;24904;52.208;21.192;2023-05-14T06:24:49;101131.09;;;14.28;62.19
39177;BME280;24904;52.208;21.192;2023-05-14T06:29:52;101135.31;;;14.61;61.32
39177;BME280;24904;52.208;21.192;2023-05-14T06:34:55;101137.59;;;14.96;60.06
39177;BME280;24904;52.208;21.192;2023-05-14T06:39:59;101136.64;;;15.32;58.45
39177;BME280;24904;52.208;21.192;2023-05-14T06:45:02;101132.11;;;15.67;57.21
39177;BME280;24904;52.208;21.192;2023-05-14T06:50:06;101127.68;;;16.02;55.58
39177;BME280;24904;52.208;21.192;2023-05-14T06:55:10;101131.09;;;16.35;54.19
39177;BME280;24904;52.208;21.192;2023-05-14T07:00:15;101125.13;;;16.65;52.70
39177;BME280;24904;52.208;21.192;2023-05-14T07:05:19;101124.83;;;17.00;51.29
39177;BME280;24904;52.208;21.192;2023-05-14T07:10:22;101123.20;;;17.28;50.44
39177;BME280;24904;52.208;21.192;2023-05-14T07:15:26;101120.52;;;17.59;49.46
39177;BME280;24904;52.208;21.192;2023-05-14T07:20:29;101117.27;;;17.89;48.20
39177;BME280;24904;52.208;21.192;2023-05-14T07:25:32;101113.96;;;18.16;46.99
39177;BME280;24904;52.208;21.192;2023-05-14T07:30:35;101109.95;;;18.40;46.02
39177;BME280;24904;52.208;21.192;2023-05-14T07:35:38;101106.89;;;18.61;44.97
39177;BME280;24904;52.208;21.192;2023-05-14T07:40:41;101103.32;;;18.85;44.49
39177;BME280;24904;52.208;21.192;2023-05-14T07:45:44;101105.77;;;19.07;43.58
39177;BME280;24904;52.208;21.192;2023-05-14T07:50:47;101102.91;;;19.31;42.35
39177;BME280;24904;52.208;21.192;2023-05-14T07:55:51;101098.61;;;19.50;41.55
39177;BME280;24904;52.208;21.192;2023-05-14T08:00:54;101095.54;;;19.66;40.72
39177;BME280;24904;52.208;21.192;2023-05-14T08:05:57;101083.45;;;19.81;40.67
39177;BME280;24904;52.208;21.192;2023-05-14T08:11:02;101084.95;;;20.02;40.22
39177;BME280;24904;52.208;21.192;2023-05-14T08:16:06;101086.05;;;20.18;39.29
39177;BME280;24904;52.208;21.192;2023-05-14T08:21:09;101084.13;;;20.27;38.97
39177;BME280;24904;52.208;21.192;2023-05-14T08:26:12;101069.82;;;20.39;38.98
39177;BME280;24904;52.208;21.192;2023-05-14T08:31:15;101062.64;;;20.58;38.70
39177;BME280;24904;52.208;21.192;2023-05-14T08:36:18;101060.08;;;20.71;38.13
39177;BME280;24904;52.208;21.192;2023-05-14T08:41:21;101056.05;;;20.81;37.79
39177;BME280;24904;52.208;21.192;2023-05-14T08:46:26;101051.31;;;20.90;37.17
39177;BME280;24904;52.208;21.192;2023-05-14T08:51:32;101045.83;;;21.01;37.43
39177;BME280;24904;52.208;21.192;2023-05-14T08:56:35;101050.31;;;21.19;37.13
39177;BME280;24904;52.208;21.192;2023-05-14T09:01:40;101051.70;;;21.32;36.13
39177;BME280;24904;52.208;21.192;2023-05-14T09:06:47;101045.39;;;21.37;35.40
39177;BME280;24904;52.208;21.192;2023-05-14T09:11:51;101039.34;;;21.43;34.60
39177;BME280;24904;52.208;21.192;2023-05-14T09:16:55;101041.73;;;21.43;34.53
39177;BME280;24904;52.208;21.192;2023-05-14T09:21:58;101039.20;;;21.52;34.73
39177;BME280;24904;52.208;21.192;2023-05-14T09:27:01;101029.77;;;21.57;34.54
39177;BME280;24904;52.208;21.192;2023-05-14T09:32:06;101033.92;;;21.66;33.93
39177;BME280;24904;52.208;21.192;2023-05-14T09:37:11;101027.52;;;21.76;33.76
39177;BME280;24904;52.208;21.192;2023-05-14T09:42:15;101029.33;;;21.87;33.44
39177;BME280;24904;52.208;21.192;2023-05-14T09:47:18;101026.61;;;21.90;32.53
39177;BME280;24904;52.208;21.192;2023-05-14T09:52:23;101024.11;;;21.95;32.67
39177;BME280;24904;52.208;21.192;2023-05-14T09:57:26;101020.92;;;21.98;31.88
39177;BME280;24904;52.208;21.192;2023-05-14T10:02:35;101013.78;;;22.02;31.80
39177;BME280;24904;52.208;21.192;2023-05-14T10:07:43;101011.08;;;22.09;31.19
39177;BME280;24904;52.208;21.192;2023-05-14T10:12:52;101008.51;;;22.15;31.06
39177;BME280;24904;52.208;21.192;2023-05-14T10:17:57;100999.34;;;22.23;30.74
39177;BME280;24904;52.208;21.192;2023-05-14T10:23:02;100997.83;;;22.23;31.01
39177;BME280;24904;52.208;21.192;2023-05-14T10:28:05;100994.45;;;22.27;30.75
39177;BME280;24904;52.208;21.192;2023-05-14T10:33:10;100994.44;;;22.39;30.60
39177;BME280;24904;52.208;21.192;2023-05-14T10:38:15;100984.66;;;22.45;30.03
39177;BME280;24904;52.208;21.192;2023-05-14T10:43:19;100977.52;;;22.49;30.17
39177;BME280;24904;52.208;21.192;2023-05-14T10:48:23;100975.80;;;22.54;29.95
39177;BME280;24904;52.208;21.192;2023-05-14T10:53:36;100970.81;;;22.37;29.55
39177;BME280;24904;52.208;21.192;2023-05-14T10:58:42;100963.82;;;22.33;29.86
39177;BME280;24904;52.208;21.192;2023-05-14T11:03:46;100959.82;;;22.19;30.55
39177;BME280;24904;52.208;21.192;2023-05-14T11:08:50;100946.58;;;22.06;31.02
39177;BME280;24904;52.208;21.192;2023-05-14T11:13:54;100945.63;;;21.96;30.85
39177;BME280;24904;52.208;21.192;2023-05-14T11:19:01;100928.06;;;21.89;30.70
39177;BME280;24904;52.208;21.192;2023-05-14T11:24:06;100914.02;;;21.89;30.61
39177;BME280;24904;52.208;21.192;2023-05-14T11:29:09;100911.07;;;21.98;30.89
39177;BME280;24904;52.208;21.192;2023-05-14T11:34:12;100904.95;;;22.09;30.39
39177;BME280;24904;52.208;21.192;2023-05-14T11:39:18;100891.55;;;22.12;30.13
39177;BME280;24904;52.208;21.192;2023-05-14T11:44:22;100883.36;;;22.13;29.82
39177;BME280;24904;52.208;21.192;2023-05-14T11:49:25;100886.30;;;22.19;29.80
39177;BME280;24904;52.208;21.192;2023-05-14T11:54:30;100868.48;;;22.23;29.80
39177;BME280;24904;52.208;21.192;2023-05-14T11:59:34;100867.08;;;22.29;29.60
39177;BME280;24904;52.208;21.192;2023-05-14T12:04:37;100852.39;;;22.30;29.68
39177;BME280;24904;52.208;21.192;2023-05-14T12:09:42;100839.59;;;22.33;29.73
39177;BME280;24904;52.208;21.192;2023-05-14T12:14:50;100839.71;;;22.37;29.60
39177;BME280;24904;52.208;21.192;2023-05-14T12:19:53;100826.31;;;22.42;29.73
39177;BME280;24904;52.208;21.192;2023-05-14T12:24:59;100823.91;;;22.42;29.53
39177;BME280;24904;52.208;21.192;2023-05-14T12:30:03;100816.71;;;22.36;29.29
39177;BME280;24904;52.208;21.192;2023-05-14T12:35:08;100817.98;;;22.26;29.31
39177;BME280;24904;52.208;21.192;2023-05-14T12:40:12;100811.30;;;22.22;29.80
39177;BME280;24904;52.208;21.192;2023-05-14T12:45:15;100805.35;;;22.27;29.13
39177;BME280;24904;52.208;21.192;2023-05-14T12:50:19;100797.30;;;22.29;29.34
39177;BME280;24904;52.208;21.192;2023-05-14T12:55:22;100808.45;;;22.38;29.01
39177;BME280;24904;52.208;21.192;2023-05-14T13:00:25;100796.75;;;22.39;28.69
39177;BME280;24904;52.208;21.192;2023-05-14T13:05:28;100801.77;;;22.40;28.33
39177;BME280;24904;52.208;21.192;2023-05-14T13:10:31;100799.11;;;22.37;28.01
39177;BME280;24904;52.208;21.192;2023-05-14T13:15:35;100790.34;;;22.20;28.25
39177;BME280;24904;52.208;21.192;2023-05-14T13:20:38;100785.75;;;22.11;28.48
39177;BME280;24904;52.208;21.192;2023-05-14T13:25:41;100785.80;;;22.07;28.40
39177;BME280;24904;52.208;21.192;2023-05-14T13:31:03;100775.45;;;22.05;28.69
39177;BME280;24904;52.208;21.192;2023-05-14T13:36:08;100770.72;;;22.03;28.55
39177;BME280;24904;52.208;21.192;2023-05-14T13:41:12;100754.56;;;21.95;28.52
39177;BME280;24904;52.208;21.192;2023-05-14T13:46:15;100750.53;;;21.93;28.89
39177;BME280;24904;52.208;21.192;2023-05-14T13:51:18;100752.81;;;21.91;28.88
39177;BME280;24904;52.208;21.192;2023-05-14T13:56:21;100746.61;;;21.88;29.05
39177;BME280;24904;52.208;21.192;2023-05-14T14:01:24;100739.30;;;21.92;28.93
39177;BME280;24904;52.208;21.192;2023-05-14T14:06:29;100734.91;;;22.03;28.99
39177;BME280;24904;52.208;21.192;2023-05-14T14:11:32;100717.83;;;22.14;28.85
39177;BME280;24904;52.208;21.192;2023-05-14T14:16:35;100707.46;;;22.18;28.71
39177;BME280;24904;52.208;21.192;2023-05-14T14:21:38;100695.51;;;22.19;28.98
39177;BME280;24904;52.208;21.192;2023-05-14T14:26:43;100686.04;;;22.20;29.14
39177;BME280;24904;52.208;21.192;2023-05-14T14:31:46;100691.14;;;22.23;29.02
39177;BME280;24904;52.208;21.192;2023-05-14T14:36:49;100677.64;;;22.23;29.10
39177;BME280;24904;52.208;21.192;2023-05-14T14:41:52;100671.88;;;22.23;29.35
39177;BME280;24904;52.208;21.192;2023-05-14T14:46:55;100668.93;;;22.23;29.46
39177;BME280;24904;52.208;21.192;2023-05-14T14:51:59;100665.32;;;22.19;29.12
39177;BME280;24904;52.208;21.192;2023-05-14T14:57:02;100671.17;;;22.05;28.93
39177;BME280;24904;52.208;21.192;2023-05-14T15:02:05;100669.77;;;21.91;29.12
39177;BME280;24904;52.208;21.192;2023-05-14T15:07:09;100672.70;;;21.84;29.02
39177;BME280;24904;52.208;21.192;2023-05-14T15:12:12;100656.87;;;21.76;29.23
39177;BME280;24904;52.208;21.192;2023-05-14T15:17:15;100654.77;;;21.67;29.20
39177;BME280;24904;52.208;21.192;2023-05-14T15:22:18;100660.83;;;21.61;29.08
39177;BME280;24904;52.208;21.192;2023-05-14T15:27:21;100655.09;;;21.56;28.99
39177;BME280;24904;52.208;21.192;2023-05-14T15:32:24;100655.73;;;21.50;28.92
39177;BME280;24904;52.208;21.192;2023-05-14T15:37:36;100640.98;;;21.45;29.14
39177;BME280;24904;52.208;21.192;2023-05-14T15:42:40;100634.77;;;21.42;29.27
39177;BME280;24904;52.208;21.192;2023-05-14T15:47:43;100632.28;;;21.36;29.43
39177;BME280;24904;52.208;21.192;2023-05-14T15:52:46;100628.23;;;21.30;29.62
39177;BME280;24904;52.208;21.192;2023-05-14T15:57:49;100630.38;;;21.24;29.71
39177;BME280;24904;52.208;21.192;2023-05-14T16:02:52;100627.67;;;21.15;29.90
39177;BME280;24904;52.208;21.192;2023-05-14T16:07:55;100621.33;;;21.11;29.83
39177;BME280;24904;52.208;21.192;2023-05-14T16:12:58;100614.38;;;21.08;29.84
39177;BME280;24904;52.208;21.192;2023-05-14T16:18:01;100617.07;;;21.03;29.97
39177;BME280;24904;52.208;21.192;2023-05-14T16:23:04;100617.63;;;20.98;29.98
39177;BME280;24904;52.208;21.192;2023-05-14T16:28:07;100615.19;;;20.93;29.97
39177;BME280;24904;52.208;21.192;2023-05-14T16:33:10;100611.19;;;20.91;29.99
39177;BME280;24904;52.208;21.192;2023-05-14T16:38:13;100597.25;;;20.91;29.97
39177;BME280;24904;52.208;21.192;2023-05-14T16:43:16;100588.30;;;20.91;29.98
39177;BME280;24904;52.208;21.192;2023-05-14T16:48:19;100584.42;;;20.87;29.98
39177;BME280;24904;52.208;21.192;2023-05-14T16:53:22;100584.29;;;20.84;30.36
39177;BME280;24904;52.208;21.192;2023-05-14T16:58:25;100583.08;;;20.78;30.68
39177;BME280;24904;52.208;21.192;2023-05-14T17:03:28;100583.62;;;20.76;30.86
39177;BME280;24904;52.208;21.192;2023-05-14T17:08:31;100582.35;;;20.73;31.05
39177;BME280;24904;52.208;21.192;2023-05-14T17:13:36;100577.05;;;20.65;31.19
39177;BME280;24904;52.208;21.192;2023-05-14T17:18:39;100570.83;;;20.57;31.23
39177;BME280;24904;52.208;21.192;2023-05-14T17:23:42;100567.92;;;20.52;31.50
39177;BME280;24904;52.208;21.192;2023-05-14T17:28:45;100566.56;;;20.43;31.54
39177;BME280;24904;52.208;21.192;2023-05-14T17:33:48;100571.64;;;20.36;31.88
39177;BME280;24904;52.208;21.192;2023-05-14T17:38:51;100573.40;;;20.27;32.20
39177;BME280;24904;52.208;21.192;2023-05-14T17:43:54;100575.64;;;20.17;32.37
39177;BME280;24904;52.208;21.192;2023-05-14T17:48:57;100570.73;;;20.09;32.59
39177;BME280;24904;52.208;21.192;2023-05-14T17:54:00;100564.80;;;19.99;32.82
39177;BME280;24904;52.208;21.192;2023-05-14T17:59:03;100564.11;;;19.88;33.20
39177;BME280;24904;52.208;21.192;2023-05-14T18:04:07;100560.69;;;19.74;33.36
39177;BME280;24904;52.208;21.192;2023-05-14T18:09:10;100563.39;;;19.60;33.63
39177;BME280;24904;52.208;21.192;2023-05-14T18:14:13;100557.52;;;19.44;34.04
39177;BME280;24904;52.208;21.192;2023-05-14T18:19:16;100558.27;;;19.25;34.59
39177;BME280;24904;52.208;21.192;2023-05-14T18:24:19;100562.33;;;19.05;35.29
39177;BME280;24904;52.208;21.192;2023-05-14T18:29:22;100562.02;;;18.81;36.26
39177;BME280;24904;52.208;21.192;2023-05-14T18:34:25;100563.23;;;18.54;37.12
39177;BME280;24904;52.208;21.192;2023-05-14T18:39:28;100567.00;;;18.29;37.68
39177;BME280;24904;52.208;21.192;2023-05-14T18:44:31;100564.74;;;18.03;38.17
39177;BME280;24904;52.208;21.192;2023-05-14T18:49:34;100564.64;;;17.79;38.91
39177;BME280;24904;52.208;21.192;2023-05-14T18:54:39;100562.21;;;17.59;39.21
39177;BME280;24904;52.208;21.192;2023-05-14T18:59:42;100564.70;;;17.40;40.15
39177;BME280;24904;52.208;21.192;2023-05-14T19:04:45;100563.42;;;17.23;40.28
39177;BME280;24904;52.208;21.192;2023-05-14T19:09:48;100565.04;;;17.08;40.85
39177;BME280;24904;52.208;21.192;2023-05-14T19:14:52;100560.79;;;16.93;41.39
39177;BME280;24904;52.208;21.192;2023-05-14T19:19:55;100556.23;;;16.77;42.04
39177;BME280;24904;52.208;21.192;2023-05-14T19:24:58;100550.66;;;16.62;42.36
39177;BME280;24904;52.208;21.192;2023-05-14T19:30:01;100545.16;;;16.50;42.40
39177;BME280;24904;52.208;21.192;2023-05-14T19:35:05;100541.48;;;16.38;42.75
39177;BME280;24904;52.208;21.192;2023-05-14T19:40:09;100544.09;;;16.22;43.05
39177;BME280;24904;52.208;21.192;2023-05-14T19:45:12;100539.69;;;16.10;43.32
39177;BME280;24904;52.208;21.192;2023-05-14T19:50:16;100533.59;;;16.00;44.15
39177;BME280;24904;52.208;21.192;2023-05-14T19:55:19;100532.13;;;15.86;44.86
39177;BME280;24904;52.208;21.192;2023-05-14T20:00:22;100532.46;;;15.72;45.01
39177;BME280;24904;52.208;21.192;2023-05-14T20:05:25;100531.83;;;15.61;45.10
39177;BME280;24904;52.208;21.192;2023-05-14T20:10:28;100533.13;;;15.53;45.01
39177;BME280;24904;52.208;21.192;2023-05-14T20:15:32;100523.83;;;15.47;45.24
39177;BME280;24904;52.208;21.192;2023-05-14T20:20:35;100519.19;;;15.44;45.56
39177;BME280;24904;52.208;21.192;2023-05-14T20:25:38;100515.59;;;15.39;45.41
39177;BME280;24904;52.208;21.192;2023-05-14T20:30:42;100516.17;;;15.32;45.91
39177;BME280;24904;52.208;21.192;2023-05-14T20:35:45;100512.42;;;15.26;45.93
39177;BME280;24904;52.208;21.192;2023-05-14T20:40:49;100506.06;;;15.21;46.42
39177;BME280;24904;52.208;21.192;2023-05-14T20:45:52;100498.98;;;15.13;46.42
39177;BME280;24904;52.208;21.192;2023-05-14T20:50:55;100493.39;;;15.11;46.35
39177;BME280;24904;52.208;21.192;2023-05-14T20:55:58;100488.34;;;15.10;46.63
39177;BME280;24904;52.208;21.192;2023-05-14T21:01:02;100477.86;;;15.07;46.60
39177;BME280;24904;52.208;21.192;2023-05-14T21:06:06;100472.40;;;15.06;46.71
39177;BME280;24904;52.208;21.192;2023-05-14T21:11:09;100469.30;;;15.05;46.79
39177;BME280;24904;52.208;21.192;2023-05-14T21:16:12;100461.40;;;15.06;46.69
39177;BME280;24904;52.208;21.192;2023-05-14T21:21:15;100454.92;;;15.08;46.68
39177;BME280;24904;52.208;21.192;2023-05-14T21:26:19;100453.09;;;15.11;46.75
39177;BME280;24904;52.208;21.192;2023-05-14T21:31:22;100452.04;;;15.13;46.66
39177;BME280;24904;52.208;21.192;2023-05-14T21:36:25;100449.58;;;15.15;46.73
39177;BME280;24904;52.208;21.192;2023-05-14T21:41:30;100449.16;;;15.19;46.69
39177;BME280;24904;52.208;21.192;2023-05-14T21:46:33;100447.09;;;15.20;46.71
39177;BME280;24904;52.208;21.192;2023-05-14T21:51:36;100440.14;;;15.19;46.73
39177;BME280;24904;52.208;21.192;2023-05-14T21:56:39;100436.35;;;15.19;46.82
39177;BME280;24904;52.208;21.192;2023-05-14T22:01:42;100432.82;;;15.16;46.87
39177;BME280;24904;52.208;21.192;2023-05-14T22:06:45;100425.81;;;15.12;47.01
39177;BME280;24904;52.208;21.192;2023-05-14T22:11:48;100426.13;;;15.12;47.00
39177;BME280;24904;52.208;21.192;2023-05-14T22:16:51;100418.29;;;15.14;46.75
39177;BME280;24904;52.208;21.192;2023-05-14T22:21:54;100416.70;;;15.15;46.60
39177;BME280;24904;52.208;21.192;2023-05-14T22:26:57;100411.78;;;15.18;46.45
39177;BME280;24904;52.208;21.192;2023-05-14T22:32:00;100410.19;;;15.20;46.34
39177;BME280;24904;52.208;21.192;2023-05-14T22:37:05;100401.95;;;15.24;46.20
39177;BME280;24904;52.208;21.192;2023-05-14T22:42:08;100395.77;;;15.26;46.09
39177;BME280;24904;52.208;21.192;2023-05-14T22:47:12;100386.40;;;15.29;45.89
39177;BME280;24904;52.208;21.192;2023-05-14T22:52:15;100380.14;;;15.33;45.73
39177;BME280;24904;52.208;21.192;2023-05-14T22:57:20;100375.14;;;15.36;45.48
39177;BME280;24904;52.208;21.192;2023-05-14T23:02:23;100371.88;;;15.38;45.43
39177;BME280;24904;52.208;21.192;2023-05-14T23:07:26;100362.30;;;15.40;45.17
39177;BME280;24904;52.208;21.192;2023-05-14T23:12:29;100347.27;;;15.41;45.08
39177;BME280;24904;52.208;21.192;2023-05-14T23:17:32;100345.03;;;15.42;44.88
39177;BME280;24904;52.208;21.192;2023-05-14T23:22:35;100342.15;;;15.45;44.87
39177;BME280;24904;52.208;21.192;2023-05-14T23:27:38;100335.58;;;15.47;44.85
39177;BME280;24904;52.208;21.192;2023-05-14T23:32:41;100326.34;;;15.46;44.69
39177;BME280;24904;52.208;21.192;2023-05-14T23:37:44;100314.16;;;15.46;44.64
39177;BME280;24904;52.208;21.192;2023-05-14T23:42:48;100305.94;;;15.46;44.67
39177;BME280;24904;52.208;21.192;2023-05-14T23:47:52;100304.52;;;15.46;44.54
39177;BME280;24904;52.208;21.192;2023-05-14T23:52:55;100303.48;;;15.46;44.39
39177;BME280;24904;52.208;21.192;2023-05-14T23:57:58;100294.56;;;15.45;44.37
